Time,TemperatureF,DewpointF,PressureIn,WindDirection,WindDirectionDegrees,WindSpeedMPH,WindSpeedGustMPH,Humidity,HourlyPrecipIn,Conditions,Clouds,dailyrainin,SolarRadiationWatts/m^2,SoftwareType,DateUTC
2013-04-03 00:00:00,48.1,45.6,30.17,NW,315,1.0,-999.0,91,0.00,,,0.00,0,Wunderground v.1.15,2013-04-03 07:00:00,
2013-04-03 00:05:00,48.1,45.6,30.17,NW,315,1.0,-999.0,91,0.00,,,0.00,0,Wunderground v.1.15,2013-04-03 07:05:00,
2013-04-03 00:10:00,48.0,46.0,30.17,NW,306,1.0,3.0,91,0.00,,,0.00,0,weatherlink.com 1.10,2013-04-03 07:10:00,
2013-04-03 00:15:00,48.1,45.6,30.17,NW,315,1.0,-999.0,91,0.00,,,0.00,0,Wunderground v.1.15,2013-04-03 07:15:00,
2013-04-03 00:20:00,48.1,45.6,30.17,NW,315,1.0,-999.0,91,0.00,,,0.00,0,Wunderground v.1.15,2013-04-03 07:20:00,
2013-04-03 00:25:00,47.5,45.0,30.17,NW,305,2.0,3.0,92,0.00,,,0.00,0,weatherlink.com 1.10,2013-04-03 07:25:00,
2013-04-03 00:30:00,47.6,45.4,30.17,WNW,293,2.0,-999.0,92,0.00,,,0.00,0,Wunderground v.1.15,2013-04-03 07:30:00,
2013-04-03 00:35:00,47.6,45.4,30.17,WNW,293,2.0,-999.0,92,0.00,,,0.00,0,Wunderground v.1.15,2013-04-03 07:35:00,
2013-04-03 00:40:00,47.2,45.0,30.17,NW,321,2.0,4.0,92,0.00,,,0.00,0,weatherlink.com 1.10,2013-04-03 07:40:00,
2013-04-03 00:45:00,47.2,45.0,30.16,WNW,293,1.0,-999.0,92,0.00,,,0.00,0,Wunderground v.1.15,2013-04-03 07:45:00,
2013-04-03 00:50:00,47.2,45.0,30.16,WNW,293,1.0,-999.0,92,0.00,,,0.00,0,Wunderground v.1.15,2013-04-03 07:50:00,
2013-04-03 00:55:00,47.0,45.0,30.16,NW,311,0.0,1.0,92,0.00,,,0.00,0,weatherlink.com 1.10,2013-04-03 07:55:00,
2013-04-03 01:00:00,47.1,44.9,30.16,NW,315,0.0,-999.0,92,0.00,,,0.00,0,Wunderground v.1.15,2013-04-03 08:00:00,
2013-04-03 01:05:00,47.1,44.9,30.16,NW,315,0.0,-999.0,92,0.00,,,0.00,0,Wunderground v.1.15,2013-04-03 08:05:00,
2013-04-03 01:10:00,46.9,45.0,30.16,NW,311,0.0,0.0,93,0.00,,,0.00,0,weatherlink.com 1.10,2013-04-03 08:10:00,
2013-04-03 01:15:00,46.9,45.0,30.16,N/A,-737280,0.0,-999.0,93,0.00,,,0.00,0,Wunderground v.1.15,2013-04-03 08:15:00,
2013-04-03 01:20:00,46.9,45.0,30.16,N/A,-737280,0.0,-999.0,93,0.00,,,0.00,0,Wunderground v.1.15,2013-04-03 08:20:00,
2013-04-03 01:25:00,47.0,45.0,30.16,NW,311,0.0,0.0,93,0.00,,,0.00,0,weatherlink.com 1.10,2013-04-03 08:25:00,
2013-04-03 01:30:00,46.9,45.0,30.17,N/A,-737280,0.0,-999.0,93,0.00,,,0.00,0,Wunderground v.1.15,2013-04-03 08:30:00,
2013-04-03 01:35:00,46.9,45.0,30.17,N/A,-737280,0.0,-999.0,93,0.00,,,0.00,0,Wunderground v.1.15,2013-04-03 08:35:00,
2013-04-03 01:40:00,46.9,45.0,30.17,NW,311,0.0,0.0,93,0.00,,,0.00,0,weatherlink.com 1.10,2013-04-03 08:40:00,
2013-04-03 01:45:00,46.9,45.0,30.17,N/A,-737280,0.0,-999.0,93,0.00,,,0.00,0,Wunderground v.1.15,2013-04-03 08:45:00,
2013-04-03 01:50:00,46.9,45.0,30.17,N/A,-737280,0.0,-999.0,93,0.00,,,0.00,0,Wunderground v.1.15,2013-04-03 08:50:00,
2013-04-03 01:55:00,46.8,45.0,30.17,NW,311,0.0,2.0,93,0.00,,,0.00,0,weatherlink.com 1.10,2013-04-03 08:55:00,
2013-04-03 02:00:00,46.8,44.9,30.17,NW,315,0.0,-999.0,93,0.00,,,0.00,0,Wunderground v.1.15,2013-04-03 09:00:00,
2013-04-03 02:05:00,46.8,44.9,30.17,NW,315,0.0,-999.0,93,0.00,,,0.00,0,Wunderground v.1.15,2013-04-03 09:05:00,
2013-04-03 02:10:00,46.6,45.0,30.17,NW,311,0.0,0.0,93,0.00,,,0.00,0,weatherlink.com 1.10,2013-04-03 09:10:00,
2013-04-03 02:15:00,46.6,44.7,30.17,N/A,-737280,0.0,-999.0,93,0.00,,,0.00,0,Wunderground v.1.15,2013-04-03 09:15:00,
2013-04-03 02:20:00,46.6,44.7,30.17,N/A,-737280,0.0,-999.0,93,0.00,,,0.00,0,Wunderground v.1.15,2013-04-03 09:20:00,
2013-04-03 02:25:00,46.3,44.0,30.17,NW,311,0.0,0.0,93,0.00,,,0.00,0,weatherlink.com 1.10,2013-04-03 09:25:00,
2013-04-03 02:30:00,46.3,44.4,30.17,N/A,-737280,0.0,-999.0,93,0.00,,,0.00,0,Wunderground v.1.15,2013-04-03 09:30:00,
2013-04-03 02:35:00,46.3,44.4,30.17,N/A,-737280,0.0,-999.0,93,0.00,,,0.00,0,Wunderground v.1.15,2013-04-03 09:35:00,
2013-04-03 02:40:00,46.1,45.0,30.17,NW,311,0.0,0.0,94,0.00,,,0.00,0,weatherlink.com 1.10,2013-04-03 09:40:00,
2013-04-03 02:45:00,46.1,44.5,30.17,N/A,-737280,0.0,-999.0,94,0.00,,,0.00,0,Wunderground v.1.15,2013-04-03 09:45:00,
2013-04-03 02:50:00,46.1,44.5,30.17,N/A,-737280,0.0,-999.0,94,0.00,,,0.00,0,Wunderground v.1.15,2013-04-03 09:50:00,
2013-04-03 02:55:00,46.1,45.0,30.17,NW,311,0.0,0.0,94,0.00,,,0.00,0,weatherlink.com 1.10,2013-04-03 09:55:00,
2013-04-03 03:00:00,46.1,44.5,30.17,N/A,-737280,0.0,-999.0,94,0.00,,,0.00,0,Wunderground v.1.15,2013-04-03 10:00:00,
2013-04-03 03:05:00,46.1,44.5,30.17,N/A,-737280,0.0,-999.0,94,0.00,,,0.00,0,Wunderground v.1.15,2013-04-03 10:05:00,
2013-04-03 03:10:00,46.0,44.0,30.17,NW,311,0.0,0.0,94,0.00,,,0.00,0,weatherlink.com 1.10,2013-04-03 10:10:00,
2013-04-03 03:15:00,46.0,44.4,30.17,N/A,-737280,0.0,-999.0,94,0.00,,,0.00,0,Wunderground v.1.15,2013-04-03 10:15:00,
2013-04-03 03:20:00,46.0,44.4,30.17,N/A,-737280,0.0,-999.0,94,0.00,,,0.00,0,Wunderground v.1.15,2013-04-03 10:20:00,
2013-04-03 03:25:00,46.1,45.0,30.17,NW,311,0.0,0.0,95,0.00,,,0.00,0,weatherlink.com 1.10,2013-04-03 10:25:00,
2013-04-03 03:30:00,46.1,44.5,30.17,N/A,-737280,0.0,-999.0,94,0.00,,,0.00,0,Wunderground v.1.15,2013-04-03 10:30:00,
2013-04-03 03:35:00,46.1,44.5,30.17,N/A,-737280,0.0,-999.0,94,0.00,,,0.00,0,Wunderground v.1.15,2013-04-03 10:35:00,
2013-04-03 03:40:00,46.1,45.0,30.17,NW,311,0.0,0.0,94,0.00,,,0.00,0,weatherlink.com 1.10,2013-04-03 10:40:00,
2013-04-03 03:45:00,46.1,44.5,30.16,N/A,-737280,0.0,-999.0,94,0.00,,,0.00,0,Wunderground v.1.15,2013-04-03 10:45:00,
2013-04-03 03:50:00,46.1,44.5,30.16,N/A,-737280,0.0,-999.0,94,0.00,,,0.00,0,Wunderground v.1.15,2013-04-03 10:50:00,
2013-04-03 03:55:00,45.9,44.0,30.16,NW,311,0.0,0.0,94,0.00,,,0.00,0,weatherlink.com 1.10,2013-04-03 10:55:00,
2013-04-03 04:00:00,46.0,44.4,30.16,N/A,-737280,0.0,-999.0,94,0.00,,,0.00,0,Wunderground v.1.15,2013-04-03 11:00:00,
2013-04-03 04:05:00,46.0,44.4,30.16,N/A,-737280,0.0,-999.0,94,0.00,,,0.00,0,Wunderground v.1.15,2013-04-03 11:05:00,
2013-04-03 04:10:00,45.7,44.0,30.16,NW,311,0.0,0.0,94,0.00,,,0.00,0,weatherlink.com 1.10,2013-04-03 11:10:00,
2013-04-03 04:15:00,45.7,44.1,30.16,N/A,-737280,0.0,-999.0,94,0.00,,,0.00,0,Wunderground v.1.15,2013-04-03 11:15:00,
2013-04-03 04:20:00,45.7,44.1,30.16,N/A,-737280,0.0,-999.0,94,0.00,,,0.00,0,Wunderground v.1.15,2013-04-03 11:20:00,
2013-04-03 04:25:00,45.4,44.0,30.16,NW,311,0.0,0.0,94,0.00,,,0.00,0,weatherlink.com 1.10,2013-04-03 11:25:00,
2013-04-03 04:30:00,45.5,44.2,30.16,N/A,-737280,0.0,-999.0,95,0.00,,,0.00,0,Wunderground v.1.15,2013-04-03 11:30:00,
2013-04-03 04:35:00,45.5,44.2,30.16,N/A,-737280,0.0,-999.0,95,0.00,,,0.00,0,Wunderground v.1.15,2013-04-03 11:35:00,
2013-04-03 04:40:00,45.5,44.0,30.16,NW,311,0.0,0.0,95,0.00,,,0.00,0,weatherlink.com 1.10,2013-04-03 11:40:00,
2013-04-03 04:45:00,45.5,44.2,30.16,N/A,-737280,0.0,-999.0,95,0.00,,,0.00,0,Wunderground v.1.15,2013-04-03 11:45:00,
2013-04-03 04:50:00,45.5,44.2,30.16,N/A,-737280,0.0,-999.0,95,0.00,,,0.00,0,Wunderground v.1.15,2013-04-03 11:50:00,
2013-04-03 04:55:00,45.6,44.0,30.16,NW,311,0.0,0.0,95,0.00,,,0.00,0,weatherlink.com 1.10,2013-04-03 11:55:00,
2013-04-03 05:00:00,45.6,44.3,30.16,N/A,-737280,0.0,-999.0,95,0.00,,,0.00,0,Wunderground v.1.15,2013-04-03 12:00:00,
2013-04-03 05:05:00,45.6,44.3,30.16,N/A,-737280,0.0,-999.0,95,0.00,,,0.00,0,Wunderground v.1.15,2013-04-03 12:05:00,
2013-04-03 05:10:00,45.8,45.0,30.16,NW,311,0.0,0.0,95,0.00,,,0.00,0,weatherlink.com 1.10,2013-04-03 12:10:00,
2013-04-03 05:15:00,45.7,44.4,30.16,N/A,-737280,0.0,-999.0,95,0.00,,,0.00,0,Wunderground v.1.15,2013-04-03 12:15:00,
2013-04-03 05:20:00,45.7,44.4,30.16,N/A,-737280,0.0,-999.0,95,0.00,,,0.00,0,Wunderground v.1.15,2013-04-03 12:20:00,
2013-04-03 05:25:00,45.7,44.0,30.16,NW,311,0.0,0.0,95,0.00,,,0.00,0,weatherlink.com 1.10,2013-04-03 12:25:00,
2013-04-03 05:30:00,45.7,44.4,30.16,N/A,-737280,0.0,-999.0,95,0.00,,,0.00,0,Wunderground v.1.15,2013-04-03 12:30:00,
2013-04-03 05:35:00,45.7,44.4,30.16,N/A,-737280,0.0,-999.0,95,0.00,,,0.00,0,Wunderground v.1.15,2013-04-03 12:35:00,
2013-04-03 05:40:00,45.7,44.0,30.16,NW,311,0.0,0.0,95,0.00,,,0.00,0,weatherlink.com 1.10,2013-04-03 12:40:00,
2013-04-03 05:45:00,45.7,44.4,30.16,N/A,-737280,0.0,-999.0,95,0.00,,,0.00,0,Wunderground v.1.15,2013-04-03 12:45:00,
2013-04-03 05:50:00,45.7,44.4,30.16,N/A,-737280,0.0,-999.0,95,0.00,,,0.00,0,Wunderground v.1.15,2013-04-03 12:50:00,
2013-04-03 05:55:00,45.7,44.0,30.16,NW,311,0.0,0.0,95,0.00,,,0.00,0,weatherlink.com 1.10,2013-04-03 12:55:00,
2013-04-03 06:00:00,45.7,44.4,30.16,N/A,-737280,0.0,-999.0,95,0.00,,,0.00,0,Wunderground v.1.15,2013-04-03 13:00:00,
2013-04-03 06:05:00,45.7,44.4,30.16,N/A,-737280,0.0,-999.0,95,0.00,,,0.00,0,Wunderground v.1.15,2013-04-03 13:05:00,
2013-04-03 06:10:00,45.8,45.0,30.16,NW,311,0.0,0.0,95,0.00,,,0.00,0,weatherlink.com 1.10,2013-04-03 13:10:00,
2013-04-03 06:25:00,45.7,44.0,30.16,NW,311,0.0,0.0,95,0.00,,,0.00,0,weatherlink.com 1.10,2013-04-03 13:25:00,
2013-04-03 06:40:00,45.6,44.0,30.16,NW,311,0.0,0.0,95,0.00,,,0.00,0,weatherlink.com 1.10,2013-04-03 13:40:00,
2013-04-03 06:55:00,45.4,44.0,30.15,NW,311,0.0,0.0,95,0.00,,,0.00,9,weatherlink.com 1.10,2013-04-03 13:55:00,
2013-04-03 07:10:00,45.0,44.0,30.15,NW,311,0.0,0.0,95,0.00,,,0.00,16,weatherlink.com 1.10,2013-04-03 14:10:00,
2013-04-03 07:25:00,44.7,43.0,30.15,NW,311,0.0,0.0,95,0.00,,,0.00,23,weatherlink.com 1.10,2013-04-03 14:25:00,
2013-04-03 07:41:00,44.7,43.0,30.15,NW,311,0.0,0.0,95,0.00,,,0.00,62,weatherlink.com 1.10,2013-04-03 14:41:00,
2013-04-03 07:56:00,45.6,45.0,30.16,NW,311,0.0,0.0,96,0.00,,,0.00,91,weatherlink.com 1.10,2013-04-03 14:56:00,
2013-04-03 08:11:00,46.9,46.0,30.16,NW,311,0.0,0.0,96,0.00,,,0.00,114,weatherlink.com 1.10,2013-04-03 15:11:00,
2013-04-03 08:26:00,47.7,46.0,30.15,NW,311,0.0,1.0,93,0.00,,,0.00,111,weatherlink.com 1.10,2013-04-03 15:26:00,
2013-04-03 08:56:00,48.6,47.0,30.14,NW,311,0.0,0.0,93,0.00,,,0.00,283,weatherlink.com 1.10,2013-04-03 15:56:00,
2013-04-03 09:56:00,53.9,49.0,30.13,WNW,293,3.0,4.0,82,0.00,,,0.00,520,weatherlink.com 1.10,2013-04-03 16:56:00,
2013-04-03 10:11:00,53.3,48.0,30.12,WNW,284,2.0,5.0,83,0.00,,,0.00,325,weatherlink.com 1.10,2013-04-03 17:11:00,
2013-04-03 10:26:00,52.3,47.0,30.12,WNW,293,0.0,3.0,83,0.00,,,0.00,561,weatherlink.com 1.10,2013-04-03 17:26:00,
2013-04-03 10:41:00,54.3,49.0,30.12,SW,236,3.0,7.0,81,0.00,,,0.00,628,weatherlink.com 1.10,2013-04-03 17:41:00,
2013-04-03 10:56:00,53.5,48.0,30.12,West,280,0.0,5.0,80,0.00,,,0.00,193,weatherlink.com 1.10,2013-04-03 17:56:00,
2013-04-03 11:26:00,54.0,48.0,30.12,NNW,327,1.0,4.0,80,0.00,,,0.00,686,weatherlink.com 1.10,2013-04-03 18:26:00,
2013-04-03 11:41:00,55.3,49.0,30.12,WNW,287,2.0,7.0,78,0.00,,,0.00,195,weatherlink.com 1.10,2013-04-03 18:41:00,
2013-04-03 11:56:00,56.2,49.0,30.12,West,269,3.0,6.0,76,0.00,,,0.00,698,weatherlink.com 1.10,2013-04-03 18:56:00,
2013-04-03 12:11:00,56.3,47.0,30.11,WNW,288,2.0,8.0,72,0.00,,,0.00,663,weatherlink.com 1.10,2013-04-03 19:11:00,
2013-04-03 12:26:00,57.3,48.0,30.11,NW,312,4.0,7.0,71,0.00,,,0.00,557,weatherlink.com 1.10,2013-04-03 19:26:00,
2013-04-03 12:41:00,57.3,47.0,30.11,WNW,296,2.0,5.0,69,0.00,,,0.00,457,weatherlink.com 1.10,2013-04-03 19:41:00,
2013-04-03 12:56:00,56.7,47.0,30.11,WNW,292,3.0,7.0,70,0.00,,,0.00,367,weatherlink.com 1.10,2013-04-03 19:56:00,
2013-04-03 13:12:00,58.2,47.0,30.12,West,275,1.0,6.0,67,0.00,,,0.00,772,weatherlink.com 1.10,2013-04-03 20:12:00,
2013-04-03 13:27:00,59.6,48.0,30.11,WSW,250,2.0,4.0,65,0.00,,,0.00,666,weatherlink.com 1.10,2013-04-03 20:27:00,
2013-04-03 13:42:00,60.5,47.0,30.11,NW,319,2.0,5.0,62,0.00,,,0.00,691,weatherlink.com 1.10,2013-04-03 20:42:00,
2013-04-03 13:57:00,61.1,47.0,30.11,NNE,16,1.0,3.0,60,0.00,,,0.00,621,weatherlink.com 1.10,2013-04-03 20:57:00,
2013-04-03 14:12:00,60.4,47.0,30.09,West,279,0.0,5.0,62,0.00,,,0.00,596,weatherlink.com 1.10,2013-04-03 21:12:00,
2013-04-03 14:27:00,59.8,47.0,30.09,WNW,297,0.0,6.0,62,0.00,,,0.00,628,weatherlink.com 1.10,2013-04-03 21:27:00,
2013-04-03 14:42:00,59.9,48.0,30.09,ENE,61,1.0,7.0,64,0.00,,,0.00,643,weatherlink.com 1.10,2013-04-03 21:42:00,
2013-04-03 14:57:00,61.6,48.0,30.09,SSW,202,0.0,5.0,61,0.00,,,0.00,506,weatherlink.com 1.10,2013-04-03 21:57:00,
2013-04-03 15:12:00,61.0,48.0,30.08,NNW,333,3.0,7.0,63,0.00,,,0.00,513,weatherlink.com 1.10,2013-04-03 22:12:00,
2013-04-03 15:27:00,61.2,49.0,30.07,SSW,211,4.0,5.0,64,0.00,,,0.00,573,weatherlink.com 1.10,2013-04-03 22:27:00,
2013-04-03 15:42:00,62.5,48.0,30.06,WNW,283,0.0,3.0,59,0.00,,,0.00,487,weatherlink.com 1.10,2013-04-03 22:42:00,
2013-04-03 15:57:00,62.9,47.0,30.06,West,267,3.0,5.0,56,0.00,,,0.00,359,weatherlink.com 1.10,2013-04-03 22:57:00,
2013-04-03 16:12:00,60.9,48.0,30.05,NNW,341,2.0,6.0,63,0.00,,,0.00,343,weatherlink.com 1.10,2013-04-03 23:12:00,
2013-04-03 16:27:00,60.2,48.0,30.05,WNW,296,5.0,8.0,64,0.00,,,0.00,232,weatherlink.com 1.10,2013-04-03 23:27:00,
2013-04-03 16:42:00,59.9,47.0,30.05,NW,312,4.0,7.0,63,0.00,,,0.00,253,weatherlink.com 1.10,2013-04-03 23:42:00,
2013-04-03 16:57:00,59.5,47.0,30.05,NW,319,3.0,5.0,63,0.00,,,0.00,202,weatherlink.com 1.10,2013-04-03 23:57:00,
2013-04-03 17:12:00,59.0,46.0,30.05,WNW,293,2.0,5.0,63,0.00,,,0.00,195,weatherlink.com 1.10,2013-04-04 00:12:00,
2013-04-03 17:27:00,58.5,46.0,30.04,West,278,3.0,5.0,63,0.00,,,0.00,181,weatherlink.com 1.10,2013-04-04 00:27:00,
2013-04-03 17:42:00,58.3,46.0,30.04,WNW,285,2.0,5.0,65,0.00,,,0.00,160,weatherlink.com 1.10,2013-04-04 00:42:00,
2013-04-03 17:57:00,57.8,47.0,30.04,WNW,287,4.0,5.0,67,0.00,,,0.00,120,weatherlink.com 1.10,2013-04-04 00:57:00,
2013-04-03 18:12:00,57.5,48.0,30.04,WNW,298,1.0,5.0,70,0.00,,,0.00,104,weatherlink.com 1.10,2013-04-04 01:12:00,
2013-04-03 18:15:00,57.5,47.4,30.03,WNW,293,2.0,-999.0,69,0.00,,,0.00,107,Wunderground v.1.15,2013-04-04 01:15:00,
2013-04-03 18:20:00,57.5,47.4,30.03,WNW,293,2.0,-999.0,69,0.00,,,0.00,107,Wunderground v.1.15,2013-04-04 01:20:00,
2013-04-03 18:25:00,57.4,47.7,30.02,WNW,293,1.0,-999.0,70,0.00,,,0.00,89,Wunderground v.1.15,2013-04-04 01:25:00,
2013-04-03 18:30:00,57.4,47.7,30.02,WNW,293,1.0,-999.0,70,0.00,,,0.00,89,Wunderground v.1.15,2013-04-04 01:30:00,
2013-04-03 18:35:00,57.4,47.7,30.02,WNW,293,1.0,-999.0,70,0.00,,,0.00,89,Wunderground v.1.15,2013-04-04 01:35:00,
2013-04-03 18:40:00,57.1,47.4,30.01,NW,315,1.0,-999.0,70,0.00,,,0.00,65,Wunderground v.1.15,2013-04-04 01:40:00,
2013-04-03 18:42:00,56.9,47.0,30.02,NW,307,0.0,3.0,70,0.00,,,0.00,62,weatherlink.com 1.10,2013-04-04 01:42:00,
2013-04-03 18:45:00,57.1,47.4,30.01,NW,315,1.0,-999.0,70,0.00,,,0.00,65,Wunderground v.1.15,2013-04-04 01:45:00,
2013-04-03 18:50:00,57.1,47.4,30.01,NW,315,1.0,-999.0,70,0.00,,,0.00,65,Wunderground v.1.15,2013-04-04 01:50:00,
2013-04-03 18:55:00,56.7,47.4,30.00,NW,315,0.0,-999.0,71,0.00,,,0.00,44,Wunderground v.1.15,2013-04-04 01:55:00,
2013-04-03 18:57:00,56.6,47.0,30.01,NW,307,1.0,2.0,70,0.00,,,0.00,39,weatherlink.com 1.10,2013-04-04 01:57:00,
2013-04-03 19:00:00,56.7,47.4,30.00,NW,315,0.0,-999.0,71,0.00,,,0.00,44,Wunderground v.1.15,2013-04-04 02:00:00,
2013-04-03 19:05:00,56.7,47.4,30.00,NW,315,0.0,-999.0,71,0.00,,,0.00,44,Wunderground v.1.15,2013-04-04 02:05:00,
2013-04-03 19:10:00,56.4,47.1,30.00,NW,315,0.0,-999.0,71,0.00,,,0.00,28,Wunderground v.1.15,2013-04-04 02:10:00,
2013-04-03 19:15:00,56.4,47.1,30.00,NW,315,0.0,-999.0,71,0.00,,,0.00,28,Wunderground v.1.15,2013-04-04 02:15:00,
2013-04-03 19:20:00,56.4,47.1,30.00,NW,315,0.0,-999.0,71,0.00,,,0.00,28,Wunderground v.1.15,2013-04-04 02:20:00,
2013-04-03 19:25:00,56.1,47.2,30.00,N/A,-737280,0.0,-999.0,72,0.00,,,0.00,14,Wunderground v.1.15,2013-04-04 02:25:00,
2013-04-03 19:27:00,56.0,47.0,30.00,NNE,28,0.0,0.0,72,0.00,,,0.00,11,weatherlink.com 1.10,2013-04-04 02:27:00,
2013-04-03 19:30:00,56.1,47.2,30.00,N/A,-737280,0.0,-999.0,72,0.00,,,0.00,14,Wunderground v.1.15,2013-04-04 02:30:00,
2013-04-03 19:35:00,56.1,47.2,30.00,N/A,-737280,0.0,-999.0,72,0.00,,,0.00,14,Wunderground v.1.15,2013-04-04 02:35:00,
2013-04-03 19:40:00,55.7,46.8,30.00,N/A,-737280,0.0,-999.0,72,0.00,,,0.00,2,Wunderground v.1.15,2013-04-04 02:40:00,
2013-04-03 19:43:00,55.5,47.0,30.00,NNE,28,0.0,0.0,72,0.00,,,0.00,0,weatherlink.com 1.10,2013-04-04 02:43:00,
2013-04-03 19:45:00,55.7,46.8,30.00,N/A,-737280,0.0,-999.0,72,0.00,,,0.00,2,Wunderground v.1.15,2013-04-04 02:45:00,
2013-04-03 19:50:00,55.7,46.8,30.00,N/A,-737280,0.0,-999.0,72,0.00,,,0.00,2,Wunderground v.1.15,2013-04-04 02:50:00,
2013-04-03 19:55:00,54.9,47.1,29.99,NW,315,0.0,-999.0,75,0.00,,,0.00,0,Wunderground v.1.15,2013-04-04 02:55:00,
2013-04-03 19:57:00,54.4,46.0,30.00,NW,325,1.0,2.0,74,0.00,,,0.00,0,weatherlink.com 1.10,2013-04-04 02:57:00,
2013-04-03 20:00:00,54.9,47.1,29.99,NW,315,0.0,-999.0,75,0.00,,,0.00,0,Wunderground v.1.15,2013-04-04 03:00:00,
2013-04-03 20:05:00,54.9,47.1,29.99,NW,315,0.0,-999.0,75,0.00,,,0.00,0,Wunderground v.1.15,2013-04-04 03:05:00,
2013-04-03 20:10:00,54.1,46.7,29.99,NW,315,1.0,-999.0,76,0.00,,,0.00,0,Wunderground v.1.15,2013-04-04 03:10:00,
2013-04-03 20:12:00,54.0,47.0,29.99,NW,314,0.0,4.0,76,0.00,,,0.00,0,weatherlink.com 1.10,2013-04-04 03:12:00,
2013-04-03 20:15:00,54.1,46.7,29.99,NW,315,1.0,-999.0,76,0.00,,,0.00,0,Wunderground v.1.15,2013-04-04 03:15:00,
2013-04-03 20:20:00,54.1,46.7,29.99,NW,315,1.0,-999.0,76,0.00,,,0.00,0,Wunderground v.1.15,2013-04-04 03:20:00,
2013-04-03 20:25:00,53.7,46.7,29.98,NW,315,0.0,-999.0,77,0.00,,,0.00,0,Wunderground v.1.15,2013-04-04 03:25:00,
2013-04-03 20:27:00,53.6,47.0,29.98,NW,314,0.0,1.0,77,0.00,,,0.00,0,weatherlink.com 1.10,2013-04-04 03:27:00,
2013-04-03 20:30:00,53.7,46.7,29.98,NW,315,0.0,-999.0,77,0.00,,,0.00,0,Wunderground v.1.15,2013-04-04 03:30:00,
2013-04-03 20:35:00,53.7,46.7,29.98,NW,315,0.0,-999.0,77,0.00,,,0.00,0,Wunderground v.1.15,2013-04-04 03:35:00,
2013-04-03 20:40:00,53.2,46.5,29.98,ENE,68,0.0,-999.0,78,0.00,,,0.00,0,Wunderground v.1.15,2013-04-04 03:40:00,
2013-04-03 20:42:00,53.0,46.0,29.98,ENE,78,0.0,1.0,78,0.00,,,0.00,0,weatherlink.com 1.10,2013-04-04 03:42:00,
2013-04-03 20:45:00,53.2,46.5,29.98,ENE,68,0.0,-999.0,78,0.00,,,0.00,0,Wunderground v.1.15,2013-04-04 03:45:00,
2013-04-03 20:50:00,53.2,46.5,29.98,ENE,68,0.0,-999.0,78,0.00,,,0.00,0,Wunderground v.1.15,2013-04-04 03:50:00,
2013-04-03 20:55:00,52.5,46.5,29.98,N/A,-737280,0.0,-999.0,80,0.00,,,0.00,0,Wunderground v.1.15,2013-04-04 03:55:00,
2013-04-03 20:57:00,52.4,46.0,29.98,ENE,78,0.0,0.0,80,0.00,,,0.00,0,weatherlink.com 1.10,2013-04-04 03:57:00,
2013-04-03 21:00:00,52.5,46.5,29.98,N/A,-737280,0.0,-999.0,80,0.00,,,0.00,0,Wunderground v.1.15,2013-04-04 04:00:00,
2013-04-03 21:05:00,52.5,46.5,29.98,N/A,-737280,0.0,-999.0,80,0.00,,,0.00,0,Wunderground v.1.15,2013-04-04 04:05:00,
2013-04-03 21:10:00,52.1,46.8,29.98,N/A,-737280,0.0,-999.0,82,0.00,,,0.00,0,Wunderground v.1.15,2013-04-04 04:10:00,
2013-04-03 21:12:00,52.0,46.0,29.98,ENE,78,0.0,0.0,81,0.00,,,0.00,0,weatherlink.com 1.10,2013-04-04 04:12:00,
2013-04-03 21:15:00,52.1,46.8,29.98,N/A,-737280,0.0,-999.0,82,0.00,,,0.00,0,Wunderground v.1.15,2013-04-04 04:15:00,
2013-04-03 21:20:00,52.1,46.8,29.98,N/A,-737280,0.0,-999.0,82,0.00,,,0.00,0,Wunderground v.1.15,2013-04-04 04:20:00,
2013-04-03 21:25:00,51.6,46.6,29.98,N/A,-737280,0.0,-999.0,83,0.00,,,0.00,0,Wunderground v.1.15,2013-04-04 04:25:00,
2013-04-03 21:27:00,51.5,47.0,29.98,ENE,78,0.0,0.0,83,0.00,,,0.00,0,weatherlink.com 1.10,2013-04-04 04:27:00,
2013-04-03 21:30:00,51.6,46.6,29.98,N/A,-737280,0.0,-999.0,83,0.00,,,0.00,0,Wunderground v.1.15,2013-04-04 04:30:00,
2013-04-03 21:35:00,51.6,46.6,29.98,N/A,-737280,0.0,-999.0,83,0.00,,,0.00,0,Wunderground v.1.15,2013-04-04 04:35:00,
2013-04-03 21:40:00,51.6,46.6,29.98,NNE,23,0.0,-999.0,83,0.00,,,0.00,0,Wunderground v.1.15,2013-04-04 04:40:00,
2013-04-03 21:42:00,51.7,47.0,29.98,NNE,30,0.0,1.0,83,0.00,,,0.00,0,weatherlink.com 1.10,2013-04-04 04:42:00,
2013-04-03 21:45:00,51.6,46.6,29.98,NNE,23,0.0,-999.0,83,0.00,,,0.00,0,Wunderground v.1.15,2013-04-04 04:45:00,
2013-04-03 21:50:00,51.6,46.6,29.98,NNE,23,0.0,-999.0,83,0.00,,,0.00,0,Wunderground v.1.15,2013-04-04 04:50:00,
2013-04-03 21:55:00,51.9,46.9,29.97,NNE,23,0.0,-999.0,83,0.00,,,0.00,0,Wunderground v.1.15,2013-04-04 04:55:00,
2013-04-03 21:57:00,51.9,47.0,29.98,NNE,30,0.0,1.0,83,0.00,,,0.00,0,weatherlink.com 1.10,2013-04-04 04:57:00,
2013-04-03 22:00:00,51.9,46.9,29.97,NNE,23,0.0,-999.0,83,0.00,,,0.00,0,Wunderground v.1.15,2013-04-04 05:00:00,
2013-04-03 22:05:00,51.9,46.9,29.97,NNE,23,0.0,-999.0,83,0.00,,,0.00,0,Wunderground v.1.15,2013-04-04 05:05:00,
2013-04-03 22:10:00,51.7,47.0,29.97,N/A,-737280,0.0,-999.0,84,0.00,,,0.00,0,Wunderground v.1.15,2013-04-04 05:10:00,
2013-04-03 22:12:00,51.7,47.0,29.97,NNE,30,0.0,0.0,83,0.00,,,0.00,0,weatherlink.com 1.10,2013-04-04 05:12:00,
2013-04-03 22:15:00,51.7,47.0,29.97,N/A,-737280,0.0,-999.0,84,0.00,,,0.00,0,Wunderground v.1.15,2013-04-04 05:15:00,
2013-04-03 22:20:00,51.7,47.0,29.97,N/A,-737280,0.0,-999.0,84,0.00,,,0.00,0,Wunderground v.1.15,2013-04-04 05:20:00,
2013-04-03 22:25:00,51.3,46.9,29.97,NE,45,0.0,-999.0,85,0.00,,,0.00,0,Wunderground v.1.15,2013-04-04 05:25:00,
2013-04-03 22:27:00,51.2,47.0,29.97,NE,55,0.0,2.0,85,0.00,,,0.00,0,weatherlink.com 1.10,2013-04-04 05:27:00,
2013-04-03 22:30:00,51.3,46.9,29.97,NE,45,0.0,-999.0,85,0.00,,,0.00,0,Wunderground v.1.15,2013-04-04 05:30:00,
2013-04-03 22:35:00,51.3,46.9,29.97,NE,45,0.0,-999.0,85,0.00,,,0.00,0,Wunderground v.1.15,2013-04-04 05:35:00,
2013-04-03 22:40:00,50.8,46.8,29.95,N/A,-737280,0.0,-999.0,86,0.00,,,0.00,0,Wunderground v.1.15,2013-04-04 05:40:00,
2013-04-03 22:42:00,50.8,47.0,29.97,NE,55,0.0,0.0,86,0.00,,,0.00,0,weatherlink.com 1.10,2013-04-04 05:42:00,
2013-04-03 22:45:00,50.8,46.8,29.95,N/A,-737280,0.0,-999.0,86,0.00,,,0.00,0,Wunderground v.1.15,2013-04-04 05:45:00,
2013-04-03 22:50:00,50.8,46.8,29.95,N/A,-737280,0.0,-999.0,86,0.00,,,0.00,0,Wunderground v.1.15,2013-04-04 05:50:00,
2013-04-03 22:55:00,50.8,46.5,29.95,WNW,293,1.0,-999.0,85,0.00,,,0.00,0,Wunderground v.1.15,2013-04-04 05:55:00,
2013-04-03 22:57:00,50.9,47.0,29.95,WNW,298,2.0,4.0,85,0.00,,,0.00,0,weatherlink.com 1.10,2013-04-04 05:57:00,
2013-04-03 23:00:00,50.8,46.5,29.95,WNW,293,1.0,-999.0,85,0.00,,,0.00,0,Wunderground v.1.15,2013-04-04 06:00:00,
2013-04-03 23:05:00,50.8,46.5,29.95,WNW,293,1.0,-999.0,85,0.00,,,0.00,0,Wunderground v.1.15,2013-04-04 06:05:00,
2013-04-03 23:10:00,51.0,47.0,29.94,ESE,113,1.0,-999.0,86,0.00,,,0.00,0,Wunderground v.1.15,2013-04-04 06:10:00,
2013-04-03 23:12:00,50.8,47.0,29.95,East,84,0.0,3.0,85,0.00,,,0.00,0,weatherlink.com 1.10,2013-04-04 06:12:00,
2013-04-03 23:15:00,51.0,47.0,29.94,ESE,113,1.0,-999.0,86,0.00,,,0.00,0,Wunderground v.1.15,2013-04-04 06:15:00,
2013-04-03 23:20:00,51.0,47.0,29.94,ESE,113,1.0,-999.0,86,0.00,,,0.00,0,Wunderground v.1.15,2013-04-04 06:20:00,
2013-04-03 23:25:00,50.5,46.5,29.94,N/A,-737280,0.0,-999.0,86,0.00,,,0.00,0,Wunderground v.1.15,2013-04-04 06:25:00,
2013-04-03 23:27:00,50.4,46.0,29.94,East,84,0.0,0.0,86,0.00,,,0.00,0,weatherlink.com 1.10,2013-04-04 06:27:00,
2013-04-03 23:30:00,50.5,46.5,29.94,N/A,-737280,0.0,-999.0,86,0.00,,,0.00,0,Wunderground v.1.15,2013-04-04 06:30:00,
2013-04-03 23:35:00,50.5,46.5,29.94,N/A,-737280,0.0,-999.0,86,0.00,,,0.00,0,Wunderground v.1.15,2013-04-04 06:35:00,
2013-04-03 23:40:00,50.1,46.4,29.94,East,90,0.0,-999.0,87,0.00,,,0.00,0,Wunderground v.1.15,2013-04-04 06:40:00,
2013-04-03 23:42:00,50.0,46.0,29.94,East,84,0.0,1.0,87,0.00,,,0.00,0,weatherlink.com 1.10,2013-04-04 06:42:00,
2013-04-03 23:45:00,50.1,46.4,29.94,East,90,0.0,-999.0,87,0.00,,,0.00,0,Wunderground v.1.15,2013-04-04 06:45:00,
2013-04-03 23:50:00,50.1,46.4,29.94,East,90,0.0,-999.0,87,0.00,,,0.00,0,Wunderground v.1.15,2013-04-04 06:50:00,
2013-04-03 23:55:00,49.8,46.4,29.94,N/A,-737280,0.0,-999.0,88,0.00,,,0.00,0,Wunderground v.1.15,2013-04-04 06:55:00,
2013-04-03 23:57:00,49.8,46.0,29.94,East,84,0.0,0.0,88,0.00,,,0.00,0,weatherlink.com 1.10,2013-04-04 06:57:00,